createdAt,value
2018-08-28T00:00:16.389Z,17.99
2018-08-28T00:01:16.629Z,18.03
2018-08-28T00:02:16.641Z,17.92
2018-08-28T00:03:16.621Z,17.9
2018-08-28T00:04:16.618Z,17.84
2018-08-28T00:05:16.107Z,17.82
2018-08-28T00:06:16.103Z,17.87
2018-08-28T00:07:16.607Z,17.97
2018-08-28T00:08:16.345Z,17.84
2018-08-28T00:09:16.340Z,17.78
2018-08-28T00:10:16.590Z,17.93
2018-08-28T00:11:16.590Z,17.9
2018-08-28T00:12:16.585Z,17.89
2018-08-28T00:13:16.580Z,17.9
2018-08-28T00:14:16.573Z,17.9
2018-08-28T00:15:16.318Z,17.95
2018-08-28T00:16:16.825Z,17.9
2018-08-28T00:17:16.631Z,17.87
2018-08-28T00:18:16.556Z,17.87
2018-08-28T00:19:16.554Z,17.9
2018-08-28T00:20:16.296Z,17.9
2018-08-28T00:21:16.546Z,18.02
2018-08-28T00:22:16.287Z,17.89
2018-08-28T00:23:16.542Z,17.9
2018-08-28T00:24:16.533Z,17.96
2018-08-28T00:25:16.535Z,17.92
2018-08-28T00:26:16.528Z,17.97
2018-08-28T00:27:16.266Z,17.89
2018-08-28T00:28:16.514Z,17.92
2018-08-28T00:29:16.513Z,17.9
2018-08-28T00:30:16.253Z,17.92
2018-08-28T00:31:16.248Z,17.9
2018-08-28T00:32:16.501Z,17.9
2018-08-28T00:33:16.241Z,17.93
2018-08-28T00:34:16.489Z,17.89
2018-08-28T00:35:16.483Z,17.92
2018-08-28T00:36:16.480Z,17.9
2018-08-28T00:37:16.477Z,17.96
2018-08-28T00:38:16.224Z,17.93
2018-08-28T00:39:16.466Z,17.97
2018-08-28T00:40:16.463Z,17.97
2018-08-28T00:41:15.955Z,17.9
2018-08-28T00:42:16.457Z,17.95
2018-08-28T00:43:16.456Z,17.92
2018-08-28T00:44:16.449Z,17.93
2018-08-28T00:45:16.445Z,17.97
2018-08-28T00:46:16.435Z,17.9
2018-08-28T00:47:16.433Z,17.89
2018-08-28T00:48:16.427Z,17.93
2018-08-28T00:49:16.424Z,17.9
2018-08-28T00:50:16.168Z,17.9
2018-08-28T00:51:16.417Z,17.86
2018-08-28T00:52:16.534Z,17.95
2018-08-28T00:53:16.415Z,17.86
2018-08-28T00:54:16.407Z,17.95
2018-08-28T00:55:16.402Z,17.9
2018-08-28T00:56:16.394Z,17.86
2018-08-28T00:57:16.388Z,17.9
2018-08-28T00:58:18.935Z,17.9
2018-08-28T00:59:16.135Z,17.86
2018-08-28T01:00:16.124Z,17.89
2018-08-28T01:02:16.367Z,17.9
2018-08-28T01:03:16.367Z,17.9
2018-08-28T01:04:16.358Z,17.87
2018-08-28T01:05:16.357Z,17.92
2018-08-28T01:07:16.344Z,17.95
2018-08-28T01:08:16.341Z,17.9
2018-08-28T01:09:18.422Z,17.95
2018-08-28T01:10:16.080Z,17.92
2018-08-28T01:11:16.335Z,17.92
2018-08-28T01:12:16.327Z,17.89
2018-08-28T01:13:20.085Z,17.92
2018-08-28T01:14:16.316Z,17.95
2018-08-28T01:18:16.300Z,17.89
2018-08-28T01:21:16.295Z,17.9
2018-08-28T01:22:16.280Z,17.93
2018-08-28T01:23:18.827Z,17.9
2018-08-28T01:24:16.274Z,17.9
2018-08-28T01:25:16.268Z,17.93
2018-08-28T01:26:16.264Z,17.84
2018-08-28T01:27:16.258Z,17.87
2018-08-28T01:28:16.254Z,17.9
2018-08-28T01:29:16.251Z,17.9
2018-08-28T01:30:15.996Z,17.95
2018-08-28T01:31:16.241Z,17.9
2018-08-28T01:32:16.236Z,17.92
2018-08-28T01:33:15.981Z,17.92
2018-08-28T01:34:16.227Z,17.95
2018-08-28T01:35:19.990Z,17.93
2018-08-28T01:36:16.223Z,17.95
2018-08-28T01:37:16.438Z,17.92
2018-08-28T01:38:16.211Z,17.89
2018-08-28T01:39:16.212Z,17.89
2018-08-28T01:40:16.204Z,17.93
2018-08-28T01:41:16.199Z,17.82
2018-08-28T01:42:15.941Z,17.86
2018-08-28T01:43:15.938Z,17.89
2018-08-28T01:44:15.933Z,17.92
2018-08-28T01:45:16.182Z,17.9
2018-08-28T01:46:15.928Z,17.89
2018-08-28T01:47:16.178Z,17.84
2018-08-28T01:48:16.167Z,17.9
2018-08-28T01:49:16.176Z,17.9
2018-08-28T01:50:16.159Z,17.95
2018-08-28T01:51:15.901Z,17.93
2018-08-28T01:52:16.149Z,17.9
2018-08-28T01:53:16.145Z,17.87
2018-08-28T01:54:16.141Z,17.95
2018-08-28T01:55:16.139Z,17.9
2018-08-28T01:56:15.880Z,17.89
2018-08-28T01:57:15.882Z,17.84
2018-08-28T01:58:16.125Z,17.82
2018-08-28T01:59:16.119Z,17.79
2018-08-28T02:00:16.114Z,17.82
2018-08-28T02:01:16.111Z,17.9
2018-08-28T02:02:15.855Z,17.82
2018-08-28T02:03:16.101Z,17.86
2018-08-28T02:04:16.096Z,17.81
2018-08-28T02:05:16.099Z,17.82
2018-08-28T02:06:16.093Z,17.79
2018-08-28T02:07:16.087Z,17.84
2018-08-28T02:08:16.082Z,17.82
2018-08-28T02:09:16.079Z,17.89
2018-08-28T02:10:16.073Z,17.84
2018-08-28T02:11:16.067Z,17.86
2018-08-28T02:12:15.815Z,17.82
2018-08-28T02:13:16.359Z,17.87
2018-08-28T02:14:16.054Z,17.81
2018-08-28T02:15:15.800Z,17.87
2018-08-28T02:16:16.052Z,17.75
2018-08-28T02:17:15.787Z,17.84
2018-08-28T02:18:16.036Z,17.77
2018-08-28T02:19:16.034Z,17.77
2018-08-28T02:20:16.032Z,17.82
2018-08-28T02:21:16.039Z,17.81
2018-08-28T02:22:16.273Z,17.79
2018-08-28T02:23:16.015Z,17.77
2018-08-28T02:24:16.016Z,17.75
2018-08-28T02:25:16.008Z,17.71
2018-08-28T02:26:16.004Z,17.71
2018-08-28T02:27:15.747Z,17.7
2018-08-28T02:28:15.991Z,17.63
2018-08-28T02:29:15.991Z,17.62
2018-08-28T02:30:15.734Z,17.62
2018-08-28T02:31:15.977Z,17.59
2018-08-28T02:32:15.972Z,17.59
2018-08-28T02:33:15.972Z,17.54
2018-08-28T02:34:15.966Z,17.55
2018-08-28T02:35:15.965Z,17.44
2018-08-28T02:36:15.960Z,17.49
2018-08-28T02:37:15.701Z,17.41
2018-08-28T02:38:15.946Z,17.41
2018-08-28T02:39:15.941Z,17.34
2018-08-28T02:40:15.936Z,17.38
2018-08-28T02:41:15.935Z,17.38
2018-08-28T02:42:15.936Z,17.25
2018-08-28T02:43:15.927Z,17.28
2018-08-28T02:44:15.927Z,17.28
2018-08-28T02:45:15.922Z,17.28
2018-08-28T02:46:15.663Z,17.23
2018-08-28T02:47:15.903Z,17.19
2018-08-28T02:48:15.648Z,17.21
2018-08-28T02:49:15.899Z,17.18
2018-08-28T02:50:15.643Z,17.12
2018-08-28T02:51:15.641Z,17.12
2018-08-28T02:52:15.883Z,17.15
2018-08-28T02:53:16.129Z,17.19
2018-08-28T02:54:15.872Z,17.12
2018-08-28T02:55:15.867Z,17.12
2018-08-28T02:56:16.271Z,17.07
2018-08-28T02:57:15.857Z,17.01
2018-08-28T02:58:15.860Z,16.96
2018-08-28T02:59:15.860Z,16.93
2018-08-28T03:00:15.848Z,16.93
2018-08-28T03:01:15.589Z,16.89
2018-08-28T03:02:15.835Z,16.88
2018-08-28T03:03:15.838Z,16.91
2018-08-28T03:04:15.827Z,16.81
2018-08-28T03:05:15.822Z,16.83
2018-08-28T03:06:15.570Z,16.82
2018-08-28T03:07:15.564Z,16.75
2018-08-28T03:08:15.815Z,16.79
2018-08-28T03:09:15.804Z,16.75
2018-08-28T03:10:15.808Z,16.79
2018-08-28T03:11:15.625Z,16.7
2018-08-28T03:12:15.534Z,16.7
2018-08-28T03:13:15.783Z,16.68
2018-08-28T03:14:15.776Z,16.6
2018-08-28T03:15:15.520Z,16.53
2018-08-28T03:16:15.846Z,16.6
2018-08-28T03:17:15.764Z,16.5
2018-08-28T03:18:15.764Z,16.6
2018-08-28T03:19:15.750Z,16.49
2018-08-28T03:20:15.747Z,16.45
2018-08-28T03:21:15.744Z,16.46
2018-08-28T03:22:15.740Z,16.45
2018-08-28T03:23:15.737Z,16.38
2018-08-28T03:24:15.727Z,16.35
2018-08-28T03:25:15.722Z,16.34
2018-08-28T03:26:15.721Z,16.27
2018-08-28T03:27:15.722Z,16.28
2018-08-28T03:28:15.713Z,16.23
2018-08-28T03:29:15.612Z,16.2
2018-08-28T03:30:15.706Z,16.09
2018-08-28T03:31:15.694Z,16.15
2018-08-28T03:32:15.687Z,16.07
2018-08-28T03:33:15.429Z,16.07
2018-08-28T03:34:15.676Z,16.02
2018-08-28T03:35:15.680Z,16.02
2018-08-28T03:36:15.666Z,15.93
2018-08-28T03:37:15.715Z,15.92
2018-08-28T03:38:15.407Z,15.97
2018-08-28T03:39:15.401Z,16.04
2018-08-28T03:40:15.665Z,16
2018-08-28T03:41:15.402Z,16.04
2018-08-28T03:42:15.639Z,16.04
2018-08-28T03:43:15.630Z,16.12
2018-08-28T03:44:15.624Z,16.12
2018-08-28T03:45:15.622Z,16.08
2018-08-28T03:46:15.616Z,16.08
2018-08-28T03:47:15.355Z,16.11
2018-08-28T03:49:15.346Z,15.97
2018-08-28T03:50:15.595Z,16.04
2018-08-28T03:51:15.337Z,16.01
2018-08-28T03:52:15.582Z,15.97
2018-08-28T03:54:15.573Z,16.07
2018-08-28T03:55:15.650Z,15.96
2018-08-28T03:56:15.561Z,16.01
2018-08-28T03:57:15.561Z,15.97
2018-08-28T03:58:15.296Z,16
2018-08-28T04:00:15.538Z,16.02
2018-08-28T04:01:15.533Z,15.97
2018-08-28T04:02:15.282Z,16
2018-08-28T04:03:15.018Z,16.05
2018-08-28T04:04:15.514Z,15.96
2018-08-28T04:05:15.562Z,15.96
2018-08-28T04:07:15.506Z,16
2018-08-28T04:08:15.496Z,16.05
2018-08-28T04:09:15.250Z,15.97
2018-08-28T04:10:15.232Z,16.02
2018-08-28T04:11:15.480Z,16.07
2018-08-28T04:12:15.220Z,16.04
2018-08-28T04:13:15.470Z,15.96
2018-08-28T04:14:15.213Z,15.96
2018-08-28T04:15:15.458Z,15.94
2018-08-28T04:16:15.453Z,16.01
2018-08-28T04:17:15.351Z,15.94
2018-08-28T04:18:15.443Z,15.94
2018-08-28T04:19:15.436Z,15.92
2018-08-28T04:20:15.176Z,15.97
2018-08-28T04:21:15.421Z,15.94
2018-08-28T04:22:15.421Z,15.94
2018-08-28T04:23:15.412Z,15.9
2018-08-28T04:24:15.410Z,15.84
2018-08-28T04:25:15.399Z,15.86
2018-08-28T04:26:15.402Z,15.89
2018-08-28T04:27:15.142Z,15.86
2018-08-28T04:28:15.384Z,15.87
2018-08-28T04:29:15.380Z,15.8
2018-08-28T04:30:15.377Z,15.89
2018-08-28T04:31:15.367Z,15.8
2018-08-28T04:32:15.365Z,15.87
2018-08-28T04:33:15.372Z,15.8
2018-08-28T04:34:15.360Z,15.84
2018-08-28T04:35:15.345Z,15.83
2018-08-28T04:36:15.345Z,15.87
2018-08-28T04:37:15.337Z,15.92
2018-08-28T04:38:15.075Z,15.92
2018-08-28T04:39:15.070Z,15.94
2018-08-28T04:40:15.316Z,16
2018-08-28T04:41:15.313Z,16.05
2018-08-28T04:42:15.306Z,16.09
2018-08-28T04:43:15.048Z,16.09
2018-08-28T04:44:15.046Z,15.97
2018-08-28T04:45:15.289Z,16.12
2018-08-28T04:46:15.293Z,16.14
2018-08-28T04:47:15.026Z,16.17
2018-08-28T04:48:15.024Z,16.31
2018-08-28T04:49:15.270Z,16.35
2018-08-28T04:50:15.012Z,16.34
2018-08-28T04:51:15.260Z,16.43
2018-08-28T04:52:14.748Z,16.53
2018-08-28T04:53:14.996Z,16.58
2018-08-28T04:54:15.148Z,16.68
2018-08-28T04:55:15.236Z,16.76
2018-08-28T04:56:14.980Z,16.79
2018-08-28T04:57:15.227Z,16.93
2018-08-28T04:58:14.970Z,16.91
2018-08-28T04:59:14.974Z,17.06
2018-08-28T05:00:15.211Z,17.16
2018-08-28T05:01:14.959Z,17.19
2018-08-28T05:02:15.201Z,17.23
2018-08-28T05:03:14.693Z,17.34
2018-08-28T05:04:14.940Z,17.28
2018-08-28T05:05:15.191Z,17.38
2018-08-28T05:06:14.930Z,17.43
2018-08-28T05:07:14.926Z,17.51
2018-08-28T05:08:15.174Z,17.51
2018-08-28T05:09:15.169Z,17.56
2018-08-28T05:10:15.168Z,17.49
2018-08-28T05:11:14.907Z,17.64
2018-08-28T05:12:15.159Z,17.71
2018-08-28T05:13:15.150Z,17.59
2018-08-28T05:14:14.896Z,17.71
2018-08-28T05:15:15.158Z,17.66
2018-08-28T05:16:15.136Z,17.74
2018-08-28T05:17:14.883Z,17.75
2018-08-28T05:18:15.135Z,17.87
2018-08-28T05:19:14.930Z,17.84
2018-08-28T05:20:15.125Z,17.79
2018-08-28T05:21:15.117Z,17.81
2018-08-28T05:22:15.110Z,17.87
2018-08-28T05:23:15.110Z,17.87
2018-08-28T05:24:15.103Z,17.99
2018-08-28T05:25:15.100Z,18.03
2018-08-28T05:26:15.097Z,18.14
2018-08-28T05:27:14.840Z,18.11
2018-08-28T05:28:14.837Z,18.17
2018-08-28T05:29:14.578Z,18.18
2018-08-28T05:30:14.828Z,18.18
2018-08-28T05:31:15.082Z,18.29
2018-08-28T05:32:14.565Z,18.32
2018-08-28T05:33:14.820Z,18.29
2018-08-28T05:34:15.063Z,18.3
2018-08-28T05:35:14.804Z,18.37
2018-08-28T05:36:15.063Z,18.54
2018-08-28T05:37:14.798Z,18.48
2018-08-28T05:38:15.101Z,18.55
2018-08-28T05:39:14.791Z,18.57
2018-08-28T05:40:15.037Z,18.65
2018-08-28T05:41:15.049Z,18.8
2018-08-28T05:42:15.028Z,18.85
2018-08-28T05:43:14.776Z,18.94
2018-08-28T05:44:14.777Z,18.91
2018-08-28T05:45:14.767Z,19.02
2018-08-28T05:46:14.511Z,19.02
2018-08-28T05:47:15.018Z,19.08
2018-08-28T05:48:15.013Z,19.1
2018-08-28T05:49:14.500Z,19.14
2018-08-28T05:50:14.749Z,19.23
2018-08-28T05:51:15.011Z,19.33
2018-08-28T05:53:14.738Z,19.4
2018-08-28T05:54:14.988Z,19.55
2018-08-28T05:55:14.480Z,19.61
2018-08-28T05:56:14.515Z,19.63
2018-08-28T05:58:14.722Z,19.66
2018-08-28T05:59:14.726Z,19.83
2018-08-28T06:00:14.974Z,19.92
2018-08-28T06:01:14.966Z,19.87
2018-08-28T06:02:14.711Z,19.92
2018-08-28T06:03:15.531Z,19.98
2018-08-28T06:04:14.704Z,20.05
2018-08-28T06:05:14.705Z,20.1
2018-08-28T06:06:14.697Z,20.08
2018-08-28T06:07:14.970Z,20.14
2018-08-28T06:08:14.952Z,20.26
2018-08-28T06:09:14.700Z,20.28
2018-08-28T06:11:14.684Z,20.36
2018-08-28T06:12:14.681Z,20.52
2018-08-28T06:13:14.678Z,20.51
2018-08-28T06:14:14.678Z,20.59
2018-08-28T06:15:14.932Z,20.61
2018-08-28T06:16:14.670Z,20.61
2018-08-28T06:17:14.922Z,20.73
2018-08-28T06:19:14.917Z,20.84
2018-08-28T06:20:18.071Z,20.85
2018-08-28T06:21:14.914Z,20.89
2018-08-28T06:22:14.906Z,20.88
2018-08-28T06:23:15.409Z,20.95
2018-08-28T06:24:14.910Z,20.99
2018-08-28T06:25:14.909Z,21.13
2018-08-28T06:26:14.963Z,21.17
2018-08-28T06:27:14.645Z,21.27
2018-08-28T06:28:14.902Z,21.28
2018-08-28T06:29:14.897Z,21.43
2018-08-28T06:30:14.891Z,21.49
2018-08-28T06:31:14.899Z,21.67
2018-08-28T06:32:15.144Z,21.8
2018-08-28T06:33:14.637Z,21.88
2018-08-28T06:34:14.917Z,22.02
2018-08-28T06:35:14.635Z,22.24
2018-08-28T06:36:14.893Z,22.36
2018-08-28T06:37:14.668Z,22.45
2018-08-28T06:38:14.638Z,22.62
2018-08-28T06:39:14.891Z,22.9
2018-08-28T06:40:14.917Z,22.91
2018-08-28T06:41:14.883Z,23.22
2018-08-28T06:42:14.887Z,23.36
2018-08-28T06:43:14.631Z,23.7
2018-08-28T06:44:14.888Z,23.88
2018-08-28T06:45:14.638Z,24.12
2018-08-28T06:46:14.885Z,24.2
2018-08-28T06:47:14.888Z,24.45
2018-08-28T06:48:14.638Z,24.69
2018-08-28T06:49:14.642Z,24.81
2018-08-28T06:50:14.896Z,25.09
2018-08-28T06:51:14.905Z,25.33
2018-08-28T06:52:14.651Z,25.46
2018-08-28T06:53:14.657Z,25.65
2018-08-28T06:54:14.653Z,25.77
2018-08-28T06:55:14.909Z,25.91
2018-08-28T06:56:14.965Z,26.07
2018-08-28T06:57:14.670Z,26.23
2018-08-28T06:58:14.921Z,26.29
2018-08-28T06:59:14.927Z,26.48
2018-08-28T07:00:14.943Z,26.57
2018-08-28T07:01:14.683Z,26.6
2018-08-28T07:02:14.757Z,26.7
2018-08-28T07:03:14.438Z,26.82
2018-08-28T07:04:14.953Z,26.92
2018-08-28T07:05:14.955Z,27.02
2018-08-28T07:06:14.961Z,27.28
2018-08-28T07:07:14.711Z,27.43
2018-08-28T07:08:14.718Z,27.59
2018-08-28T07:09:14.721Z,27.79
2018-08-28T07:10:15.150Z,27.92
2018-08-28T07:11:14.488Z,28.06
2018-08-28T07:12:14.994Z,28.09
2018-08-28T07:13:14.744Z,28.21
2018-08-28T07:14:15.005Z,28.37
2018-08-28T07:15:15.011Z,28.52
2018-08-28T07:16:15.018Z,28.67
2018-08-28T07:17:14.773Z,28.88
2018-08-28T07:18:15.031Z,28.9
2018-08-28T07:19:15.050Z,28.92
2018-08-28T07:20:15.044Z,29.06
2018-08-28T07:21:15.052Z,29.11
2018-08-28T07:22:15.074Z,29.21
2018-08-28T07:23:15.069Z,29.33
2018-08-28T07:24:14.825Z,29.37
2018-08-28T07:25:15.083Z,29.61
2018-08-28T07:26:14.988Z,29.58
2018-08-28T07:27:15.104Z,29.68
2018-08-28T07:28:15.105Z,29.79
2018-08-28T07:29:15.118Z,29.9
2018-08-28T07:30:15.125Z,30.1
2018-08-28T07:31:14.929Z,30.08
2018-08-28T07:32:14.886Z,29.94
2018-08-28T07:33:14.904Z,30.1
2018-08-28T07:34:15.156Z,30.13
2018-08-28T07:35:14.920Z,30.08
2018-08-28T07:36:15.173Z,30.2
2018-08-28T07:37:15.258Z,30.27
2018-08-28T07:38:14.935Z,30.42
2018-08-28T07:39:15.195Z,30.39
2018-08-28T07:40:14.699Z,30.38
2018-08-28T07:41:14.962Z,30.49
2018-08-28T07:42:14.967Z,30.51
2018-08-28T07:43:14.724Z,30.53
2018-08-28T07:44:15.240Z,30.49
2018-08-28T07:45:15.248Z,30.51
2018-08-28T07:46:15.254Z,30.51
2018-08-28T07:47:15.269Z,30.39
2018-08-28T07:48:15.331Z,30.2
2018-08-28T07:49:15.027Z,30.16
2018-08-28T07:50:15.296Z,30.07
2018-08-28T07:51:15.296Z,30.16
2018-08-28T07:52:15.304Z,30.05
2018-08-28T07:53:15.064Z,30.15
2018-08-28T07:54:15.322Z,30.02
2018-08-28T07:55:15.085Z,30.02
2018-08-28T07:56:15.339Z,30
2018-08-28T07:57:15.353Z,29.92
2018-08-28T07:58:15.109Z,30.04
2018-08-28T07:59:15.113Z,30.05
2018-08-28T08:00:15.378Z,29.95
2018-08-28T08:01:15.499Z,29.83
2018-08-28T08:02:15.150Z,30.02
2018-08-28T08:03:15.400Z,30.08
2018-08-28T08:04:15.412Z,30.08
2018-08-28T08:05:15.164Z,30.15
2018-08-28T08:06:15.173Z,30.23
2018-08-28T08:07:15.187Z,30.26
2018-08-28T08:08:15.450Z,30.35
2018-08-28T08:09:15.455Z,30.43
2018-08-28T08:10:15.524Z,30.45
2018-08-28T08:11:15.470Z,30.39
2018-08-28T08:12:15.481Z,30.47
2018-08-28T08:13:15.490Z,30.42
2018-08-28T08:14:15.498Z,30.2
2018-08-28T08:15:15.254Z,30.15
2018-08-28T08:16:15.999Z,30.07
2018-08-28T08:17:15.529Z,29.94
2018-08-28T08:18:15.548Z,29.78
2018-08-28T08:19:15.550Z,29.64
2018-08-28T08:20:15.553Z,29.53
2018-08-28T08:21:15.560Z,29.55
2018-08-28T08:22:15.579Z,29.6
2018-08-28T08:23:15.587Z,29.55
2018-08-28T08:24:15.592Z,29.52
2018-08-28T08:25:15.594Z,29.42
2018-08-28T08:26:15.612Z,29.36
2018-08-28T08:27:15.360Z,29.19
2018-08-28T08:28:16.481Z,29.04
2018-08-28T08:29:15.638Z,28.95
2018-08-28T08:30:15.134Z,28.81
2018-08-28T08:31:15.651Z,28.56
2018-08-28T08:32:15.401Z,28.48
2018-08-28T08:33:15.662Z,28.34
2018-08-28T08:34:15.422Z,28.22
2018-08-28T08:35:15.491Z,28.09
2018-08-28T08:36:15.688Z,28.15
2018-08-28T08:37:15.699Z,28.09
2018-08-28T08:38:15.710Z,28.03
2018-08-28T08:39:15.716Z,27.81
2018-08-28T08:40:15.709Z,27.7
2018-08-28T08:41:15.464Z,27.54
2018-08-28T08:42:15.926Z,27.34
2018-08-28T08:43:15.477Z,27.24
2018-08-28T08:44:15.480Z,27
2018-08-28T08:45:15.486Z,27
2018-08-28T08:46:15.745Z,27.02
2018-08-28T08:47:15.497Z,26.95
2018-08-28T08:48:15.752Z,26.89
2018-08-28T08:49:15.505Z,26.82
2018-08-28T08:50:15.762Z,26.69
2018-08-28T08:51:15.548Z,26.57
2018-08-28T08:52:15.516Z,26.4
2018-08-28T08:53:15.774Z,26.43
2018-08-28T08:54:15.538Z,26.21
2018-08-28T08:55:15.533Z,26.12
2018-08-28T08:56:15.534Z,25.82
2018-08-28T08:57:15.971Z,25.77
2018-08-28T08:58:15.543Z,25.64
2018-08-28T08:59:15.801Z,25.61
2018-08-28T09:00:15.554Z,25.58
2018-08-28T09:01:15.806Z,25.54
2018-08-28T09:02:15.804Z,25.58
2018-08-28T09:03:15.811Z,25.58
2018-08-28T09:04:15.809Z,25.54
2018-08-28T09:05:15.813Z,25.45
2018-08-28T09:06:16.302Z,25.46
2018-08-28T09:07:15.816Z,25.45
2018-08-28T09:08:15.567Z,25.5
2018-08-28T09:09:15.825Z,25.42
2018-08-28T09:10:15.828Z,25.42
2018-08-28T09:11:15.826Z,25.54
2018-08-28T09:12:15.983Z,25.51
2018-08-28T09:13:15.591Z,25.6
2018-08-28T09:14:15.330Z,25.43
2018-08-28T09:15:15.629Z,25.47
2018-08-28T09:16:15.843Z,25.47
2018-08-28T09:17:15.596Z,25.46
2018-08-28T09:18:15.843Z,25.52
2018-08-28T09:19:15.647Z,25.57
2018-08-28T09:20:15.855Z,25.61
2018-08-28T09:21:15.593Z,25.64
2018-08-28T09:22:15.848Z,25.72
2018-08-28T09:23:15.351Z,25.83
2018-08-28T09:24:15.853Z,25.95
2018-08-28T09:25:15.600Z,26.01
2018-08-28T09:26:15.856Z,25.95
2018-08-28T09:27:15.861Z,25.99
2018-08-28T09:28:15.858Z,26.06
2018-08-28T09:29:15.611Z,26.02
2018-08-28T09:30:15.614Z,26.01
2018-08-28T09:31:15.743Z,25.98
2018-08-28T09:32:16.018Z,25.82
2018-08-28T09:33:15.623Z,25.88
2018-08-28T09:34:15.873Z,25.85
2018-08-28T09:35:15.874Z,25.97
2018-08-28T09:36:15.875Z,25.97
2018-08-28T09:37:15.884Z,25.99
2018-08-28T09:38:16.008Z,25.97
2018-08-28T09:39:15.884Z,25.95
2018-08-28T09:40:15.635Z,25.9
2018-08-28T09:41:15.893Z,25.9
2018-08-28T09:42:15.639Z,25.9
2018-08-28T09:43:15.641Z,25.82
2018-08-28T09:44:15.897Z,25.61
2018-08-28T09:45:15.899Z,25.5
2018-08-28T09:46:15.899Z,25.52
2018-08-28T09:47:15.650Z,25.52
2018-08-28T09:48:16.512Z,25.46
2018-08-28T09:49:15.912Z,25.51
2018-08-28T09:50:16.140Z,25.4
2018-08-28T09:51:15.903Z,25.43
2018-08-28T09:52:15.664Z,25.5
2018-08-28T09:53:15.921Z,25.7
2018-08-28T09:54:15.915Z,25.72
2018-08-28T09:55:15.679Z,25.9
2018-08-28T09:56:15.414Z,25.9
2018-08-28T09:57:15.668Z,26.02
2018-08-28T09:58:15.668Z,25.97
2018-08-28T09:59:15.672Z,25.99
2018-08-28T10:00:15.674Z,26.07
2018-08-28T10:01:15.930Z,26.2
2018-08-28T10:02:15.928Z,26.28
2018-08-28T10:03:15.682Z,26.3
2018-08-28T10:04:15.681Z,26.57
2018-08-28T10:05:15.702Z,26.67
2018-08-28T10:06:15.688Z,26.8
2018-08-28T10:07:15.944Z,26.8
2018-08-28T10:08:15.695Z,27.03
2018-08-28T10:09:15.693Z,27
2018-08-28T10:10:15.959Z,27.07
2018-08-28T10:11:15.700Z,27.07
2018-08-28T10:12:15.955Z,27.02
2018-08-28T10:13:15.703Z,27.17
2018-08-28T10:14:15.961Z,27.19
2018-08-28T10:15:15.709Z,27.21
2018-08-28T10:16:15.965Z,27.31
2018-08-28T10:17:16.069Z,27.29
2018-08-28T10:18:15.976Z,27.29
2018-08-28T10:19:15.973Z,27.24
2018-08-28T10:20:15.982Z,27.34
2018-08-28T10:21:15.981Z,27.1
2018-08-28T10:22:15.988Z,27
2018-08-28T10:23:15.990Z,26.97
2018-08-28T10:24:15.992Z,26.87
2018-08-28T10:25:15.990Z,26.85
2018-08-28T10:26:15.739Z,26.82
2018-08-28T10:27:15.764Z,26.87
2018-08-28T10:28:15.746Z,27.03
2018-08-28T10:29:16.003Z,26.99
2018-08-28T10:30:16.086Z,27
2018-08-28T10:31:16.007Z,27.02
2018-08-28T10:32:15.759Z,27.06
2018-08-28T10:33:16.011Z,27.07
2018-08-28T10:34:16.015Z,27
2018-08-28T10:35:15.773Z,27.17
2018-08-28T10:36:15.517Z,27.14
2018-08-28T10:37:16.028Z,27.21
2018-08-28T10:38:16.349Z,27.29
2018-08-28T10:39:16.029Z,27.27
2018-08-28T10:40:16.033Z,27.29
2018-08-28T10:41:16.041Z,27.1
2018-08-28T10:42:16.045Z,27.19
2018-08-28T10:43:15.787Z,26.97
2018-08-28T10:44:15.797Z,27.04
2018-08-28T10:45:15.802Z,26.89
2018-08-28T10:46:16.530Z,26.87
2018-08-28T10:47:16.053Z,26.77
2018-08-28T10:48:15.806Z,26.54
2018-08-28T10:49:16.059Z,26.36
2018-08-28T10:50:15.808Z,26.05
2018-08-28T10:51:15.811Z,25.95
2018-08-28T10:52:16.063Z,25.77
2018-08-28T10:53:16.068Z,25.6
2018-08-28T10:54:16.070Z,25.33
2018-08-28T10:55:16.073Z,25.3
2018-08-28T10:56:15.830Z,25.28
2018-08-28T10:57:15.821Z,25.21
2018-08-28T10:58:16.079Z,25.3
2018-08-28T10:59:16.079Z,25.21
2018-08-28T11:00:15.828Z,25.1
2018-08-28T11:01:15.832Z,25.09
2018-08-28T11:02:16.384Z,25.05
2018-08-28T11:03:16.088Z,25.14
2018-08-28T11:04:15.837Z,25.15
2018-08-28T11:05:16.087Z,25.2
2018-08-28T11:06:16.088Z,25.18
2018-08-28T11:07:15.838Z,25.09
2018-08-28T11:08:16.093Z,25.13
2018-08-28T11:09:15.844Z,25.05
2018-08-28T11:10:16.095Z,25.08
2018-08-28T11:11:15.845Z,25
2018-08-28T11:12:16.361Z,25.13
2018-08-28T11:13:16.097Z,25.23
2018-08-28T11:14:16.099Z,25.21
2018-08-28T11:15:16.101Z,25.43
2018-08-28T11:16:16.006Z,25.46
2018-08-28T11:17:16.112Z,25.62
2018-08-28T11:18:16.110Z,25.73
2018-08-28T11:19:16.105Z,25.72
2018-08-28T11:20:16.107Z,25.92
2018-08-28T11:21:15.857Z,25.9
2018-08-28T11:22:15.635Z,25.97
2018-08-28T11:23:15.861Z,25.91
2018-08-28T11:24:16.112Z,25.85
2018-08-28T11:25:16.114Z,25.85
2018-08-28T11:26:16.124Z,25.73
2018-08-28T11:27:15.871Z,25.61
2018-08-28T11:28:15.870Z,25.6
2018-08-28T11:29:16.123Z,25.52
2018-08-28T11:30:16.137Z,25.54
2018-08-28T11:31:15.958Z,25.52
2018-08-28T11:32:16.131Z,25.61
2018-08-28T11:33:16.130Z,25.6
2018-08-28T11:34:16.135Z,25.64
2018-08-28T11:35:16.132Z,25.79
2018-08-28T11:36:16.138Z,25.8
2018-08-28T11:37:16.138Z,25.94
2018-08-28T11:38:16.216Z,26.01
2018-08-28T11:39:16.140Z,26.17
2018-08-28T11:40:16.141Z,26.33
2018-08-28T11:41:16.138Z,26.44
2018-08-28T11:42:16.142Z,26.57
2018-08-28T11:43:15.637Z,26.67
2018-08-28T11:44:16.140Z,26.76
2018-08-28T11:45:16.144Z,26.77
2018-08-28T11:46:16.154Z,26.87
2018-08-28T11:47:16.529Z,26.95
2018-08-28T11:48:16.149Z,26.88
2018-08-28T11:49:16.154Z,26.84
2018-08-28T11:50:16.169Z,26.81
2018-08-28T11:51:16.164Z,26.81
2018-08-28T11:52:16.337Z,26.81
2018-08-28T11:53:16.169Z,26.75
2018-08-28T11:54:15.657Z,26.7
2018-08-28T11:55:16.165Z,26.72
2018-08-28T11:56:15.662Z,26.7
2018-08-28T11:57:16.179Z,26.66
2018-08-28T11:58:16.171Z,26.77
2018-08-28T11:59:16.172Z,26.81
2018-08-28T12:00:16.177Z,26.84
2018-08-28T12:01:16.184Z,26.84
2018-08-28T12:02:16.183Z,26.67
2018-08-28T12:03:16.186Z,26.58
2018-08-28T12:04:16.185Z,26.6
2018-08-28T12:05:16.854Z,26.45
2018-08-28T12:06:16.187Z,26.39
2018-08-28T12:07:16.551Z,26.43
2018-08-28T12:08:15.939Z,26.33
2018-08-28T12:09:16.191Z,26.37
2018-08-28T12:10:16.198Z,26.37
2018-08-28T12:11:15.954Z,26.33
2018-08-28T12:12:16.551Z,26.32
2018-08-28T12:13:16.583Z,26.3
2018-08-28T12:14:16.202Z,26.35
2018-08-28T12:15:16.205Z,26.47
2018-08-28T12:16:16.210Z,26.39
2018-08-28T12:17:16.210Z,26.45
2018-08-28T12:18:16.210Z,26.51
2018-08-28T12:19:16.214Z,26.33
2018-08-28T12:20:16.252Z,26.29
2018-08-28T12:21:15.968Z,26.25
2018-08-28T12:22:16.219Z,26.25
2018-08-28T12:23:16.224Z,26.23
2018-08-28T12:24:16.222Z,26.25
2018-08-28T12:25:15.971Z,26.29
2018-08-28T12:26:16.225Z,26.33
2018-08-28T12:27:16.228Z,26.35
2018-08-28T12:28:15.975Z,26.3
2018-08-28T12:29:15.727Z,26.44
2018-08-28T12:30:16.235Z,26.47
2018-08-28T12:31:15.979Z,26.6
2018-08-28T12:32:15.984Z,26.62
2018-08-28T12:33:16.237Z,26.52
2018-08-28T12:34:16.003Z,26.51
2018-08-28T12:35:15.987Z,26.62
2018-08-28T12:36:15.991Z,26.63
2018-08-28T12:37:16.698Z,26.66
2018-08-28T12:38:15.993Z,26.7
2018-08-28T12:39:16.246Z,26.73
2018-08-28T12:40:16.248Z,26.81
2018-08-28T12:41:16.253Z,26.88
2018-08-28T12:42:15.747Z,27.02
2018-08-28T12:43:16.001Z,27.12
2018-08-28T12:44:16.486Z,27.31
2018-08-28T12:45:16.004Z,27.41
2018-08-28T12:46:16.384Z,27.49
2018-08-28T12:47:16.268Z,27.54
2018-08-28T12:48:16.289Z,27.62
2018-08-28T12:49:16.267Z,27.74
2018-08-28T12:50:16.017Z,27.84
2018-08-28T12:51:16.425Z,27.78
2018-08-28T12:52:16.280Z,27.84
2018-08-28T12:53:16.292Z,28
2018-08-28T12:54:16.287Z,28
2018-08-28T12:55:16.042Z,28.09
2018-08-28T12:56:16.033Z,28.21
2018-08-28T12:57:15.785Z,28.21
2018-08-28T12:58:16.045Z,28.39
2018-08-28T12:59:16.296Z,28.43
2018-08-28T13:00:16.304Z,28.36
2018-08-28T13:01:16.049Z,28.24
2018-08-28T13:02:16.200Z,28.09
2018-08-28T13:03:15.802Z,28
2018-08-28T13:04:16.058Z,27.87
2018-08-28T13:05:16.313Z,27.88
2018-08-28T13:06:16.326Z,27.78
2018-08-28T13:07:16.600Z,27.84
2018-08-28T13:08:16.331Z,27.84
2018-08-28T13:09:16.336Z,28.09
2018-08-28T13:10:16.078Z,28.07
2018-08-28T13:11:16.332Z,28.03
2018-08-28T13:12:16.086Z,28.07